Time;durP1;ratioP1;P1;durP2;ratioP2;P2;SDS_P1;SDS_P2;PMS_P1;PMS_P2;Temp;Humidity;BMP_temperature;BMP_pressure;BME280_temperature;BME280_humidity;BME280_pressure;Samples;Min_cycle;Max_cycle;Signal;HPM_P1;HPM_P2
2022/11/04 00:01:34;;;;;;;1.53;1.00;;;11.50;99.90;;;;;;5112292;28;20452;-71
2022/11/04 00:04:01;;;;;;;2.23;1.43;;;11.40;99.90;;;;;;5112316;28;20450;-70
2022/11/04 00:06:29;;;;;;;1.40;1.20;;;11.30;99.90;;;;;;5112196;28;20545;-71
2022/11/04 00:08:57;;;;;;;2.53;1.30;;;11.40;99.90;;;;;;5111520;28;20447;-71
2022/11/04 00:14:11;;;;;;;1.90;1.07;;;11.40;99.90;;;;;;5111713;28;20563;-71
2022/11/04 00:19:22;;;;;;;2.47;1.17;;;11.30;99.90;;;;;;5111029;28;20512;-70
2022/11/04 00:30:08;;;;;;;2.70;1.57;;;11.10;99.90;;;;;;5110966;28;20571;-70
2022/11/04 00:35:21;;;;;;;2.33;1.17;;;11.00;99.90;;;;;;5111413;28;20714;-70
2022/11/04 00:37:49;;;;;;;1.40;1.10;;;10.90;99.90;;;;;;5100633;28;20447;-71
2022/11/04 00:40:16;;;;;;;1.10;0.80;;;10.90;99.90;;;;;;5110894;28;20840;-71
2022/11/04 00:42:46;;;;;;;1.60;1.30;;;11.00;99.90;;;;;;5111266;28;20504;-71
2022/11/04 00:45:13;;;;;;;2.10;1.10;;;10.90;99.90;;;;;;5111016;28;20839;-70
2022/11/04 00:47:39;;;;;;;1.30;0.97;;;11.00;99.90;;;;;;5111071;28;20452;-70
2022/11/04 00:50:07;;;;;;;1.63;1.00;;;11.10;99.90;;;;;;5107059;28;20849;-70
2022/11/04 00:52:34;;;;;;;1.13;0.70;;;11.00;99.90;;;;;;5111094;28;20980;-71
2022/11/04 00:55:03;;;;;;;1.63;0.90;;;10.90;99.90;;;;;;5111076;28;20450;-70
2022/11/04 00:57:29;;;;;;;2.03;0.83;;;10.90;99.90;;;;;;5110957;28;20822;-71
2022/11/04 00:59:56;;;;;;;1.60;1.00;;;10.90;99.90;;;;;;5110657;28;20456;-71
2022/11/04 01:02:23;;;;;;;1.30;0.90;;;11.00;99.90;;;;;;5110762;28;20447;-70
2022/11/04 01:04:50;;;;;;;4.20;1.00;;;11.00;99.90;;;;;;5110707;28;20444;-71
2022/11/04 01:07:17;;;;;;;1.60;1.00;;;10.90;99.90;;;;;;5110660;28;20807;-71
2022/11/04 01:09:43;;;;;;;1.60;1.00;;;11.00;99.90;;;;;;5110632;28;20476;-71
2022/11/04 01:12:12;;;;;;;2.80;1.40;;;11.10;99.90;;;;;;5110546;28;20458;-71
2022/11/04 01:14:38;;;;;;;1.17;0.70;;;11.00;99.90;;;;;;5110711;28;20443;-71
2022/11/04 01:17:06;;;;;;;1.57;0.87;;;10.90;99.90;;;;;;5110433;28;20460;-71
2022/11/04 01:19:32;;;;;;;1.13;1.00;;;11.00;99.90;;;;;;5110561;28;20451;-71
2022/11/04 01:21:59;;;;;;;0.90;0.67;;;11.00;99.90;;;;;;5110859;28;20441;-71
2022/11/04 01:24:26;;;;;;;3.90;1.20;;;11.00;99.90;;;;;;5110749;28;20779;-71
2022/11/04 01:26:53;;;;;;;1.40;1.17;;;11.00;99.90;;;;;;5110995;28;20458;-71
2022/11/04 01:29:21;;;;;;;2.30;0.90;;;11.00;99.90;;;;;;5109630;28;20591;-70
2022/11/04 01:31:48;;;;;;;1.50;0.90;;;11.10;99.90;;;;;;5110943;28;20458;-71
2022/11/04 01:34:15;;;;;;;1.70;0.90;;;11.20;99.90;;;;;;5110262;28;20451;-71
2022/11/04 01:36:41;;;;;;;1.20;0.77;;;11.20;99.90;;;;;;5110655;28;20863;-70
2022/11/04 01:39:09;;;;;;;2.50;1.10;;;11.10;99.90;;;;;;5110154;28;20546;-71
2022/11/04 01:41:36;;;;;;;2.73;1.37;;;11.00;99.90;;;;;;5110969;28;20467;-71
2022/11/04 01:44:24;;;;;;;1.80;0.80;;;11.00;99.90;;;;;;5109953;28;20447;-70
2022/11/04 01:46:54;;;;;;;1.63;1.23;;;11.00;99.90;;;;;;5110702;28;20468;-70
2022/11/04 01:49:27;;;;;;;1.30;0.60;;;11.00;99.90;;;;;;5096836;28;20525;-71
2022/11/04 01:52:00;;;;;;;1.80;1.03;;;11.00;99.90;;;;;;5110484;28;20447;-72
2022/11/04 01:54:28;;;;;;;1.43;0.97;;;10.90;99.90;;;;;;5110601;28;20931;-72
2022/11/04 01:56:58;;;;;;;1.10;0.80;;;10.90;99.90;;;;;;5110308;28;20939;-71
2022/11/04 01:59:28;;;;;;;1.70;1.10;;;10.80;99.90;;;;;;5109344;28;20443;-72
2022/11/04 02:01:56;;;;;;;1.20;0.60;;;10.90;99.90;;;;;;5110117;28;20968;-72
2022/11/04 02:04:25;;;;;;;1.07;0.63;;;10.80;99.90;;;;;;5109704;28;20466;-72
2022/11/04 02:06:54;;;;;;;1.70;0.73;;;10.60;99.90;;;;;;5110092;28;20834;-71
2022/11/04 02:09:23;;;;;;;0.87;0.57;;;10.60;99.90;;;;;;5109325;28;20446;-71
2022/11/04 02:14:35;;;;;;;2.13;1.00;;;10.70;99.90;;;;;;5109879;28;20908;-70
2022/11/04 02:17:10;;;;;;;1.60;0.93;;;10.80;99.90;;;;;;5109297;28;20830;-68
2022/11/04 02:19:54;;;;;;;1.67;1.00;;;10.90;99.90;;;;;;5109789;28;20473;-70
2022/11/04 02:22:41;;;;;;;1.07;0.60;;;10.90;99.90;;;;;;5109397;28;20551;-69
2022/11/04 02:25:31;;;;;;;2.50;0.83;;;10.80;99.90;;;;;;5109630;28;20817;-69
2022/11/04 02:28:20;;;;;;;1.30;0.97;;;10.70;99.90;;;;;;5109731;28;20447;-70
2022/11/04 02:30:53;;;;;;;2.47;1.20;;;10.60;99.90;;;;;;5109769;28;20475;-70
2022/11/04 02:33:22;;;;;;;1.33;0.70;;;10.60;99.90;;;;;;5110601;28;20455;-70
2022/11/04 02:36:00;;;;;;;1.90;1.00;;;10.70;99.90;;;;;;5113548;28;20455;-70
2022/11/04 02:38:37;;;;;;;1.53;0.90;;;10.50;99.90;;;;;;5113260;28;20437;-69
2022/11/04 02:41:14;;;;;;;6.00;0.90;;;10.50;99.90;;;;;;5113068;28;20454;-71
2022/11/04 02:43:52;;;;;;;0.83;0.67;;;10.60;99.90;;;;;;5113107;28;20445;-71
2022/11/04 02:46:24;;;;;;;1.07;0.83;;;10.60;99.90;;;;;;5102195;28;20458;-71
2022/11/04 02:49:00;;;;;;;1.47;1.00;;;10.70;99.90;;;;;;5113135;28;20455;-70
2022/11/04 02:51:30;;;;;;;2.83;0.90;;;10.50;99.90;;;;;;5113603;28;20607;-70
2022/11/04 02:54:05;;;;;;;1.00;0.70;;;10.60;99.90;;;;;;5113713;28;20530;-70
2022/11/04 02:56:36;;;;;;;1.10;0.70;;;10.50;99.90;;;;;;5113487;28;20451;-70
2022/11/04 02:59:07;;;;;;;1.10;0.50;;;10.50;99.90;;;;;;5103192;28;20457;-71
2022/11/04 03:01:39;;;;;;;1.43;0.70;;;10.60;99.90;;;;;;5112645;28;20968;-71
2022/11/04 03:04:11;;;;;;;1.80;0.80;;;10.60;99.90;;;;;;5112657;28;20579;-71
2022/11/04 03:06:39;;;;;;;1.40;0.80;;;10.50;99.90;;;;;;5112657;28;20451;-71
2022/11/04 03:09:11;;;;;;;2.03;0.90;;;10.60;99.90;;;;;;5112071;28;20457;-71
2022/11/04 03:11:40;;;;;;;1.57;0.60;;;10.70;99.90;;;;;;5112849;28;20479;-71
2022/11/04 03:14:13;;;;;;;0.93;0.50;;;10.70;99.90;;;;;;5112323;28;20926;-71
2022/11/04 03:16:47;;;;;;;1.00;0.70;;;10.80;99.90;;;;;;5112681;28;20448;-70
2022/11/04 03:19:19;;;;;;;1.20;0.70;;;10.70;99.90;;;;;;5112638;28;20454;-71
2022/11/04 03:21:51;;;;;;;0.80;0.60;;;10.80;99.90;;;;;;5101280;28;20469;-72
2022/11/04 03:24:18;;;;;;;1.07;0.80;;;10.70;99.90;;;;;;5112644;28;20556;-72
2022/11/04 03:26:50;;;;;;;0.80;0.53;;;10.70;99.90;;;;;;5112788;28;20545;-71
2022/11/04 03:29:25;;;;;;;1.30;0.73;;;10.60;99.90;;;;;;5112043;28;20806;-71
2022/11/04 03:32:02;;;;;;;1.13;0.70;;;10.40;99.90;;;;;;5112330;28;20793;-71
2022/11/04 03:34:30;;;;;;;0.80;0.53;;;10.30;99.90;;;;;;5111464;28;20446;-71
2022/11/04 03:36:57;;;;;;;0.77;0.60;;;10.20;99.90;;;;;;5112637;28;20871;-71
2022/11/04 03:39:24;;;;;;;1.43;0.83;;;10.10;99.90;;;;;;5111412;28;20463;-71
2022/11/04 03:41:55;;;;;;;1.00;0.53;;;10.10;99.90;;;;;;5112853;28;20454;-71
2022/11/04 03:44:22;;;;;;;0.87;0.60;;;10.20;99.90;;;;;;5100519;28;20735;-72
2022/11/04 03:46:51;;;;;;;1.10;0.80;;;10.20;99.90;;;;;;5112009;28;20529;-71
2022/11/04 03:49:21;;;;;;;1.27;0.70;;;10.20;99.90;;;;;;5111201;28;20847;-71
2022/11/04 03:51:48;;;;;;;0.80;0.60;;;10.20;99.90;;;;;;5112421;28;20848;-71
2022/11/04 03:54:15;;;;;;;0.93;0.57;;;10.20;99.90;;;;;;5111946;28;20445;-71
2022/11/04 03:57:02;;;;;;;1.23;0.53;;;10.10;99.90;;;;;;5112323;28;20443;-71
2022/11/04 04:00:05;;;;;;;0.70;0.50;;;10.20;99.90;;;;;;5112306;28;20519;-71
2022/11/04 04:02:59;;;;;;;2.17;0.80;;;10.20;99.90;;;;;;5103411;28;20536;-71
2022/11/04 04:05:30;;;;;;;1.27;0.60;;;10.10;99.90;;;;;;5106228;28;20459;-70
2022/11/04 04:08:10;;;;;;;0.80;0.60;;;10.10;99.90;;;;;;5111801;28;20447;-71
2022/11/04 04:10:42;;;;;;;1.30;0.97;;;9.80;99.90;;;;;;5111637;28;20881;-71
2022/11/04 04:13:23;;;;;;;0.80;0.50;;;9.80;99.90;;;;;;5111483;28;20449;-72
2022/11/04 04:15:55;;;;;;;2.30;0.77;;;9.70;99.90;;;;;;5104492;28;20455;-71
2022/11/04 04:18:30;;;;;;;1.00;0.63;;;9.70;99.90;;;;;;5110550;28;20448;-70
2022/11/04 04:21:02;;;;;;;0.93;0.60;;;9.70;99.90;;;;;;5111135;28;20810;-71
2022/11/04 04:29:06;;;;;;;1.10;0.70;;;9.40;99.90;;;;;;5110470;28;20428;-71
2022/11/04 04:31:51;;;;;;;1.10;1.00;;;9.30;99.90;;;;;;5114700;28;20483;-71
2022/11/04 04:34:21;;;;;;;1.23;0.80;;;9.20;99.90;;;;;;5113073;28;20448;-71
2022/11/04 04:36:58;;;;;;;1.20;0.70;;;9.20;99.90;;;;;;5114008;28;20436;-71
2022/11/04 04:45:03;;;;;;;0.80;0.60;;;9.20;99.90;;;;;;5115566;28;20615;-71
2022/11/04 04:47:39;;;;;;;0.90;0.63;;;9.10;99.90;;;;;;5116205;28;20445;-71
2022/11/04 04:50:07;;;;;;;1.60;1.03;;;9.10;99.90;;;;;;5115152;28;20475;-71
2022/11/04 04:52:38;;;;;;;0.80;0.50;;;9.10;99.90;;;;;;5100335;28;20543;-72
2022/11/04 04:55:06;;;;;;;3.40;0.90;;;9.20;99.90;;;;;;5111379;28;20567;-71
2022/11/04 04:57:33;;;;;;;1.30;0.80;;;9.20;99.90;;;;;;5110827;28;20452;-71
2022/11/04 05:00:01;;;;;;;1.00;0.70;;;9.00;99.90;;;;;;5110141;28;20852;-70
2022/11/04 05:02:28;;;;;;;0.70;0.40;;;9.00;99.90;;;;;;5110917;28;20459;-71
2022/11/04 05:04:55;;;;;;;1.00;0.60;;;8.90;99.90;;;;;;5111006;28;20448;-71
2022/11/04 05:07:22;;;;;;;0.90;0.63;;;9.10;99.90;;;;;;5109804;28;20674;-71
2022/11/04 05:09:50;;;;;;;1.00;0.70;;;9.20;99.90;;;;;;5110437;28;20445;-70
2022/11/04 05:12:17;;;;;;;1.20;0.87;;;9.00;99.90;;;;;;5110868;28;20566;-71
2022/11/04 05:14:44;;;;;;;1.00;0.60;;;9.10;99.90;;;;;;5110858;28;20440;-71
2022/11/04 05:17:11;;;;;;;1.33;0.60;;;8.90;99.90;;;;;;5110965;28;20471;-70
2022/11/04 05:19:38;;;;;;;2.03;0.87;;;8.90;99.90;;;;;;5110504;28;20450;-71
2022/11/04 05:22:05;;;;;;;0.87;0.60;;;9.10;99.90;;;;;;5110862;28;20460;-71
2022/11/04 05:24:32;;;;;;;1.90;0.80;;;9.10;99.90;;;;;;5111326;28;20455;-70
2022/11/04 05:27:01;;;;;;;1.53;1.17;;;9.20;99.90;;;;;;5117393;28;20442;-71
2022/11/04 05:29:27;;;;;;;0.80;0.67;;;9.00;99.90;;;;;;5110317;28;20443;-71
2022/11/04 05:31:54;;;;;;;1.00;0.70;;;8.90;99.90;;;;;;5110714;28;20483;-72
2022/11/04 05:34:21;;;;;;;1.07;0.70;;;8.90;99.90;;;;;;5110212;28;20450;-70
2022/11/04 05:36:48;;;;;;;1.37;0.80;;;8.90;99.90;;;;;;5110423;28;20539;-71
2022/11/04 05:39:14;;;;;;;10.20;0.87;;;8.80;99.90;;;;;;5110251;28;20444;-71
2022/11/04 05:41:41;;;;;;;6.63;1.23;;;8.70;99.90;;;;;;5110660;28;20459;-71
2022/11/04 05:44:11;;;;;;;0.80;0.60;;;8.60;99.90;;;;;;5110221;28;20451;-69
2022/11/04 05:46:38;;;;;;;0.90;0.70;;;8.80;99.90;;;;;;5110659;28;20493;-73
2022/11/04 05:49:05;;;;;;;1.20;1.00;;;8.90;99.90;;;;;;5103083;28;20453;-74
2022/11/04 05:51:33;;;;;;;1.37;1.00;;;8.80;99.90;;;;;;5094359;28;20486;-71
2022/11/04 05:54:01;;;;;;;1.40;0.73;;;8.80;99.90;;;;;;5106892;28;20954;-73
2022/11/04 05:56:28;;;;;;;1.57;1.00;;;8.70;99.90;;;;;;5107044;28;20504;-73
2022/11/04 05:58:54;;;;;;;1.13;0.80;;;8.60;99.90;;;;;;5106162;28;20450;-72
2022/11/04 06:01:31;;;;;;;0.90;0.70;;;8.50;99.90;;;;;;5108748;28;20459;-72
2022/11/04 06:03:59;;;;;;;1.27;0.87;;;8.60;99.90;;;;;;5109710;28;20949;-73
2022/11/04 06:06:27;;;;;;;1.20;1.00;;;8.50;99.90;;;;;;5110479;28;20807;-72
2022/11/04 06:08:55;;;;;;;0.90;0.50;;;8.50;99.90;;;;;;5113135;28;20949;-72
2022/11/04 06:11:22;;;;;;;0.90;0.70;;;8.70;99.90;;;;;;5108193;28;20985;-72
2022/11/04 06:13:50;;;;;;;0.90;0.73;;;8.70;99.90;;;;;;5117222;28;20452;-75
2022/11/04 06:16:17;;;;;;;2.20;1.53;;;8.70;99.90;;;;;;5121888;28;20550;-72
2022/11/04 06:18:45;;;;;;;1.40;1.00;;;8.70;99.90;;;;;;5121948;28;20481;-71
2022/11/04 06:21:24;;;;;;;1.63;0.93;;;8.70;99.90;;;;;;5121159;28;20514;-70
2022/11/04 06:23:52;;;;;;;1.47;1.20;;;8.80;99.90;;;;;;5114574;28;20456;-72
2022/11/04 06:26:19;;;;;;;1.37;0.87;;;8.80;99.90;;;;;;5122775;28;20467;-72
2022/11/04 06:28:46;;;;;;;2.90;0.93;;;8.60;99.90;;;;;;5123774;28;20459;-72
2022/11/04 06:31:14;;;;;;;1.70;1.00;;;8.60;99.90;;;;;;5122838;28;20490;-73
2022/11/04 06:33:41;;;;;;;1.10;0.87;;;8.60;99.90;;;;;;5123487;28;20440;-72
2022/11/04 06:36:12;;;;;;;1.20;1.10;;;8.70;99.90;;;;;;5122153;28;20454;-73
2022/11/04 06:38:40;;;;;;;0.90;0.77;;;8.70;99.90;;;;;;5122721;28;20443;-73
2022/11/04 06:41:09;;;;;;;1.30;0.93;;;8.70;99.90;;;;;;5123035;28;20519;-73
2022/11/04 06:43:35;;;;;;;1.30;0.70;;;8.50;99.90;;;;;;5122213;28;20444;-73
2022/11/04 06:46:02;;;;;;;1.67;0.87;;;8.60;99.90;;;;;;5122754;28;20463;-70
2022/11/04 06:48:30;;;;;;;1.20;0.80;;;8.80;99.90;;;;;;5123244;28;20472;-73
2022/11/04 06:50:58;;;;;;;2.80;1.20;;;8.70;99.90;;;;;;5122093;28;20570;-74
2022/11/04 06:53:26;;;;;;;1.87;1.03;;;8.70;99.90;;;;;;5119132;28;20538;-72
2022/11/04 06:55:53;;;;;;;0.90;0.80;;;8.70;99.90;;;;;;5119341;28;20460;-72
2022/11/04 06:58:20;;;;;;;2.17;0.97;;;8.60;99.90;;;;;;5117987;28;20455;-71
2022/11/04 07:00:52;;;;;;;1.43;0.90;;;8.60;99.90;;;;;;5116536;28;20542;-72
2022/11/04 07:03:19;;;;;;;6.30;0.90;;;8.60;99.90;;;;;;5114041;28;21456;-73
2022/11/04 07:05:46;;;;;;;1.77;1.00;;;8.60;99.90;;;;;;5112975;28;20447;-73
2022/11/04 07:08:12;;;;;;;1.20;0.90;;;8.60;99.90;;;;;;5113379;28;20444;-74
2022/11/04 07:10:41;;;;;;;1.00;0.70;;;8.70;99.90;;;;;;5113826;28;20453;-73
2022/11/04 07:13:08;;;;;;;2.73;1.50;;;8.70;99.90;;;;;;5112290;28;20452;-76
2022/11/04 07:15:35;;;;;;;1.47;0.80;;;8.60;99.90;;;;;;5111389;28;20462;-73
2022/11/04 07:18:02;;;;;;;1.30;0.80;;;8.60;99.90;;;;;;5111830;28;20450;-71
2022/11/04 07:20:29;;;;;;;1.10;0.87;;;8.60;99.90;;;;;;5112818;28;20822;-73
2022/11/04 07:22:56;;;;;;;1.00;0.90;;;8.60;99.90;;;;;;5111749;28;20976;-73
2022/11/04 07:25:23;;;;;;;1.33;0.80;;;8.60;99.90;;;;;;5111745;28;20473;-74
2022/11/04 07:27:51;;;;;;;1.30;0.83;;;8.70;99.90;;;;;;5113104;28;20576;-73
2022/11/04 07:30:19;;;;;;;2.43;1.53;;;8.70;99.90;;;;;;5112295;28;20448;-73
2022/11/04 07:32:46;;;;;;;2.67;1.40;;;8.80;99.90;;;;;;5112234;28;20562;-73
2022/11/04 07:35:13;;;;;;;1.17;0.80;;;8.90;99.90;;;;;;5112423;28;20462;-73
2022/11/04 07:37:40;;;;;;;1.00;0.70;;;8.90;99.90;;;;;;5112435;28;21171;-73
2022/11/04 07:40:08;;;;;;;3.00;1.13;;;8.80;99.90;;;;;;5106322;28;20451;-73
2022/11/04 07:42:35;;;;;;;1.20;0.90;;;8.80;99.90;;;;;;5112038;28;20459;-73
2022/11/04 07:45:04;;;;;;;1.10;0.80;;;8.80;99.90;;;;;;5111291;28;20448;-74
2022/11/04 07:47:31;;;;;;;2.20;1.30;;;8.90;99.90;;;;;;5111635;28;20447;-72
2022/11/04 07:49:58;;;;;;;1.27;0.90;;;8.90;99.90;;;;;;5113227;28;20812;-73
2022/11/04 07:52:25;;;;;;;5.70;1.40;;;9.00;99.90;;;;;;5112474;28;20487;-72
2022/11/04 07:54:52;;;;;;;1.20;0.93;;;9.00;99.90;;;;;;5112583;28;20448;-72
2022/11/04 07:57:18;;;;;;;2.77;1.33;;;9.00;99.90;;;;;;5111414;28;20456;-73
2022/11/04 07:59:45;;;;;;;1.30;1.10;;;9.10;99.90;;;;;;5111812;28;20815;-71
2022/11/04 08:02:13;;;;;;;1.60;1.30;;;9.20;99.90;;;;;;5112532;28;20448;-73
2022/11/04 08:04:40;;;;;;;7.00;1.30;;;9.20;99.90;;;;;;5112455;28;20475;-71
2022/11/04 08:07:08;;;;;;;1.27;0.90;;;9.20;99.90;;;;;;5110790;28;20440;-73
2022/11/04 08:09:36;;;;;;;1.70;0.93;;;9.30;99.90;;;;;;5111612;28;20444;-73
2022/11/04 08:12:04;;;;;;;1.03;0.83;;;9.40;99.90;;;;;;5111634;27;20876;-72
2022/11/04 08:14:31;;;;;;;2.70;1.20;;;9.50;99.90;;;;;;5110818;28;20504;-73
2022/11/04 08:16:58;;;;;;;1.43;1.07;;;9.50;99.90;;;;;;5102422;28;20974;-72
2022/11/04 08:19:27;;;;;;;5.57;1.37;;;9.60;99.90;;;;;;5107838;28;20459;-73
2022/11/04 08:21:54;;;;;;;2.57;1.47;;;9.60;99.90;;;;;;5110773;28;20445;-72
2022/11/04 08:24:21;;;;;;;1.70;1.10;;;9.60;99.90;;;;;;5111896;28;20945;-72
2022/11/04 08:26:48;;;;;;;2.67;1.20;;;9.70;99.90;;;;;;5110467;28;20528;-73
2022/11/04 08:29:15;;;;;;;2.10;1.00;;;9.80;99.90;;;;;;5110215;28;20455;-73
2022/11/04 08:31:42;;;;;;;2.50;1.60;;;9.90;99.90;;;;;;5110401;28;20473;-73
2022/11/04 08:34:11;;;;;;;3.33;2.00;;;9.90;99.90;;;;;;5109653;28;20457;-70
2022/11/04 08:36:41;;;;;;;1.40;1.00;;;10.00;99.90;;;;;;5110669;28;20464;-70
2022/11/04 08:39:09;;;;;;;2.63;1.50;;;10.10;99.90;;;;;;5110248;28;20560;-70
2022/11/04 08:41:37;;;;;;;1.97;1.13;;;10.30;99.90;;;;;;5111022;28;20473;-71
2022/11/04 08:44:05;;;;;;;1.33;0.97;;;10.30;99.90;;;;;;5111695;28;20446;-70
2022/11/04 08:46:35;;;;;;;1.53;1.10;;;10.40;99.90;;;;;;5110718;27;20480;-70
2022/11/04 08:49:03;;;;;;;1.90;0.90;;;10.50;1.00;;;;;;5110365;28;20847;-68
2022/11/04 08:51:31;;;;;;;2.00;1.33;;;;;;;;;;5110958;28;20974;-72
2022/11/04 08:53:59;;;;;;;4.27;1.60;;;11.00;99.90;;;;;;5108995;28;20537;-71
2022/11/04 08:56:28;;;;;;;3.17;1.77;;;11.30;1.00;;;;;;5108897;28;20958;-70
2022/11/04 08:58:57;;;;;;;1.60;0.90;;;11.30;1.00;;;;;;5111461;28;20540;-71
2022/11/04 09:01:24;;;;;;;2.07;1.03;;;11.40;1.00;;;;;;5109827;28;20458;-71
2022/11/04 09:03:51;;;;;;;1.17;0.90;;;11.20;99.90;;;;;;5110979;28;20456;-71
2022/11/04 09:06:21;;;;;;;1.50;1.07;;;11.20;99.90;;;;;;5110023;28;20447;-70
2022/11/04 09:08:49;;;;;;;1.20;1.00;;;11.10;99.90;;;;;;5110672;28;20870;-71
2022/11/04 09:11:17;;;;;;;3.07;1.20;;;11.10;1.00;;;;;;5109333;28;20827;-71
2022/11/04 09:13:44;;;;;;;1.23;0.80;;;11.20;99.90;;;;;;5108811;28;20440;-71
2022/11/04 09:16:13;;;;;;;1.60;1.00;;;11.20;30.00;;;;;;5105121;28;20807;-71
2022/11/04 09:18:40;;;;;;;1.10;0.73;;;11.20;1.00;;;;;;5110690;28;20819;-71
2022/11/04 09:21:09;;;;;;;1.00;0.90;;;11.30;1.00;;;;;;5108664;28;20955;-70
2022/11/04 09:23:37;;;;;;;4.00;0.87;;;11.30;99.90;;;;;;5110587;28;20871;-71
2022/11/04 09:26:06;;;;;;;0.80;0.60;;;11.30;1.00;;;;;;5106665;28;20447;-71
2022/11/04 09:28:34;;;;;;;0.83;0.63;;;11.40;1.00;;;;;;5110711;28;20448;-71
2022/11/04 09:31:05;;;;;;;0.87;0.50;;;11.50;1.00;;;;;;5110990;28;20452;-70
2022/11/04 09:33:32;;;;;;;3.93;1.00;;;11.40;1.00;;;;;;5108592;28;20476;-71
2022/11/04 09:35:59;;;;;;;1.03;0.60;;;11.40;1.00;;;;;;5110125;28;20444;-72
2022/11/04 09:38:26;;;;;;;1.10;0.73;;;11.40;99.90;;;;;;5110339;28;20444;-72
2022/11/04 09:40:53;;;;;;;0.80;0.60;;;11.50;1.00;;;;;;5110685;28;20452;-71
2022/11/04 09:43:38;;;;;;;1.13;0.90;;;11.60;99.90;;;;;;5110304;28;20451;-73
2022/11/04 09:46:06;;;;;;;1.10;0.70;;;11.70;1.00;;;;;;5098112;28;20455;-71
2022/11/04 09:48:38;;;;;;;2.40;0.90;;;11.60;17.50;;;;;;5110713;28;20436;-71
2022/11/04 09:51:08;;;;;;;1.27;1.10;;;11.70;85.40;;;;;;5110482;28;20836;-71
2022/11/04 09:53:41;;;;;;;1.63;0.90;;;11.70;29.80;;;;;;5110134;28;20493;-71
2022/11/04 09:56:16;;;;;;;1.73;0.60;;;11.60;1.00;;;;;;5105597;28;20832;-71
2022/11/04 09:58:44;;;;;;;1.47;0.87;;;11.70;1.00;;;;;;5110414;28;20450;-71
2022/11/04 10:01:29;;;;;;;1.07;0.60;;;11.80;36.10;;;;;;5105602;28;20448;-72
2022/11/04 10:04:14;;;;;;;1.63;1.10;;;12.00;99.90;;;;;;5104928;28;20844;-73
2022/11/04 10:06:55;;;;;;;1.27;0.97;;;12.00;10.30;;;;;;5110105;28;20459;-70
2022/11/04 10:09:34;;;;;;;1.10;0.70;;;12.30;1.00;;;;;;5110316;28;20452;-72
2022/11/04 10:12:12;;;;;;;0.80;0.60;;;12.10;18.20;;;;;;5110581;28;20483;-72
2022/11/04 10:14:56;;;;;;;0.80;0.60;;;12.20;99.90;;;;;;5109698;28;20447;-71
2022/11/04 10:17:43;;;;;;;1.40;0.70;;;12.20;59.20;;;;;;5109138;28;20448;-71
2022/11/04 10:20:27;;;;;;;1.30;0.73;;;12.30;1.00;;;;;;5109514;28;20532;-71
2022/11/04 10:22:58;;;;;;;0.97;0.50;;;12.50;1.00;;;;;;5109291;28;20448;-71
2022/11/04 10:25:33;;;;;;;1.00;0.60;;;12.40;99.90;;;;;;5108368;28;20447;-71
2022/11/04 10:28:00;;;;;;;8.03;1.10;;;12.30;99.90;;;;;;5110243;28;20436;-72
2022/11/04 10:30:30;;;;;;;3.77;1.00;;;12.50;99.90;;;;;;5109468;28;20451;-72
2022/11/04 10:33:05;;;;;;;1.87;0.70;;;12.50;99.90;;;;;;5110213;28;20579;-72
2022/11/04 10:35:35;;;;;;;1.97;0.90;;;12.40;99.90;;;;;;5109142;28;20452;-71
2022/11/04 10:38:17;;;;;;;0.90;0.80;;;12.60;99.90;;;;;;5110571;28;20446;-69
2022/11/04 10:40:48;;;;;;;3.00;0.70;;;12.70;1.00;;;;;;5110235;28;20443;-71
2022/11/04 10:43:18;;;;;;;0.97;0.67;;;12.80;99.90;;;;;;5110145;28;20934;-71
2022/11/04 10:45:59;;;;;;;4.20;0.67;;;12.80;1.00;;;;;;5108857;28;20467;-72
2022/11/04 10:48:32;;;;;;;3.23;0.90;;;12.80;1.00;;;;;;5106266;28;20440;-72
2022/11/04 10:51:00;;;;;;;1.00;0.60;;;13.00;1.00;;;;;;5102558;28;20485;-72
2022/11/04 10:53:29;;;;;;;1.60;0.80;;;12.90;1.00;;;;;;5109791;28;20475;-73
2022/11/04 10:56:03;;;;;;;1.40;0.80;;;13.00;1.00;;;;;;5113015;28;20451;-73
2022/11/04 10:58:34;;;;;;;1.00;0.60;;;13.00;1.00;;;;;;5110580;28;20444;-72
2022/11/04 11:01:23;;;;;;;1.20;0.80;;;13.00;1.00;;;;;;5103239;28;20450;-71
2022/11/04 11:03:49;;;;;;;0.90;0.80;;;13.10;1.00;;;;;;5100249;28;20789;-74
2022/11/04 11:06:24;;;;;;;2.83;1.13;;;13.10;1.00;;;;;;5113090;28;20551;-72
2022/11/04 11:08:52;;;;;;;1.63;0.90;;;13.10;1.00;;;;;;5112312;28;20534;-74
2022/11/04 11:11:37;;;;;;;3.17;0.87;;;13.10;1.00;;;;;;5112235;28;20943;-74
2022/11/04 11:14:04;;;;;;;1.77;1.10;;;13.00;1.00;;;;;;5110244;28;20478;-70
2022/11/04 11:16:32;;;;;;;1.17;0.70;;;13.00;1.00;;;;;;5110078;28;20447;-73
2022/11/04 11:19:14;;;;;;;1.00;0.50;;;13.10;1.00;;;;;;5110161;28;20448;-73
2022/11/04 11:21:44;;;;;;;1.70;0.63;;;13.00;1.00;;;;;;5111101;28;20440;-72
2022/11/04 11:24:18;;;;;;;1.00;0.80;;;12.90;99.90;;;;;;5113413;28;20455;-73
2022/11/04 11:26:48;;;;;;;1.47;0.70;;;12.90;1.00;;;;;;5113073;28;20935;-72
2022/11/04 11:29:21;;;;;;;0.70;0.50;;;12.70;99.90;;;;;;5104827;28;20463;-73
2022/11/04 11:31:51;;;;;;;1.17;0.70;;;12.70;1.00;;;;;;5112601;28;20448;-72
2022/11/04 11:34:25;;;;;;;3.90;1.00;;;12.90;99.90;;;;;;5112718;28;20490;-73
2022/11/04 11:36:53;;;;;;;1.60;0.80;;;12.90;99.90;;;;;;5112510;28;20908;-74
2022/11/04 11:39:23;;;;;;;0.90;0.60;;;12.90;99.90;;;;;;5112340;28;20458;-70
2022/11/04 11:41:55;;;;;;;1.90;0.87;;;13.00;99.90;;;;;;5112999;28;20435;-74
2022/11/04 11:44:31;;;;;;;2.43;0.63;;;13.00;99.90;;;;;;5098958;28;20496;-72
2022/11/04 11:47:01;;;;;;;1.00;0.63;;;12.90;99.90;;;;;;5112507;28;20861;-73
2022/11/04 11:49:32;;;;;;;2.30;0.70;;;13.00;99.90;;;;;;5104230;28;20992;-72
2022/11/04 11:52:27;;;;;;;1.63;0.90;;;13.00;99.90;;;;;;5112166;28;20563;-73
2022/11/04 11:55:01;;;;;;;0.87;0.60;;;13.20;99.90;;;;;;5112213;28;20454;-72
2022/11/04 11:57:35;;;;;;;1.33;0.67;;;13.30;99.90;;;;;;5111675;28;20964;-72
2022/11/04 12:00:08;;;;;;;1.57;0.70;;;13.40;99.90;;;;;;5112392;28;20443;-69
2022/11/04 12:02:44;;;;;;;1.40;0.70;;;13.40;99.90;;;;;;5111771;28;20538;-73
2022/11/04 12:05:12;;;;;;;0.70;0.60;;;13.40;99.90;;;;;;5111492;28;20439;-72
2022/11/04 12:07:48;;;;;;;1.53;0.90;;;13.40;99.90;;;;;;5111893;28;20446;-72
2022/11/04 12:10:24;;;;;;;1.40;1.00;;;13.40;99.90;;;;;;5109607;28;20460;-73
2022/11/04 12:13:03;;;;;;;4.40;4.00;;;13.50;99.90;;;;;;5110178;28;20471;-73
2022/11/04 12:15:39;;;;;;;2.30;0.80;;;13.40;99.90;;;;;;5101296;28;20455;-72
2022/11/04 12:18:20;;;;;;;4.83;1.00;;;13.20;99.90;;;;;;5109901;28;20531;-72
2022/11/04 12:20:57;;;;;;;0.90;0.60;;;13.20;99.90;;;;;;5112141;28;20457;-72
2022/11/04 12:23:29;;;;;;;2.30;0.90;;;13.20;99.90;;;;;;5099158;28;20974;-73
2022/11/04 12:26:11;;;;;;;3.53;0.90;;;13.20;99.90;;;;;;5111297;28;20484;-74
2022/11/04 12:28:50;;;;;;;1.00;0.60;;;13.20;99.90;;;;;;5111415;28;20452;-73
2022/11/04 12:31:26;;;;;;;5.17;3.10;;;13.10;99.90;;;;;;5110329;28;20535;-73
2022/11/04 12:34:12;;;;;;;0.80;0.60;;;13.20;99.90;;;;;;5105644;28;20487;-73
2022/11/04 12:37:08;;;;;;;2.10;0.77;;;13.20;99.90;;;;;;5109356;28;20479;-73
2022/11/04 12:39:53;;;;;;;0.97;0.53;;;13.10;99.90;;;;;;5110954;28;20446;-75
2022/11/04 12:42:28;;;;;;;0.90;0.70;;;13.20;99.90;;;;;;5111596;28;20444;-75
2022/11/04 12:45:06;;;;;;;1.73;0.90;;;13.40;99.90;;;;;;5110819;28;20439;-75
2022/11/04 12:47:36;;;;;;;1.50;0.93;;;13.50;99.90;;;;;;5105010;28;20471;-74
2022/11/04 12:50:39;;;;;;;2.50;1.27;;;13.50;99.90;;;;;;5110963;28;20471;-75
2022/11/04 12:53:38;;;;;;;6.57;0.87;;;13.60;99.90;;;;;;5110563;28;20483;-75
2022/11/04 12:56:09;;;;;;;1.47;0.70;;;13.60;99.90;;;;;;5110740;28;20803;-75
2022/11/04 12:58:46;;;;;;;5.30;1.30;;;13.70;99.90;;;;;;5111265;28;20947;-76
2022/11/04 13:01:18;;;;;;;1.40;0.50;;;13.60;99.90;;;;;;5107512;28;20460;-76
2022/11/04 13:03:50;;;;;;;1.90;0.80;;;13.60;99.90;;;;;;5105033;28;20452;-75
2022/11/04 13:06:24;;;;;;;7.20;0.90;;;13.90;99.90;;;;;;5110655;28;20953;-75
2022/11/04 13:08:56;;;;;;;3.80;0.70;;;13.90;99.90;;;;;;5103147;28;20476;-75
2022/11/04 13:11:28;;;;;;;4.93;0.97;;;14.00;99.90;;;;;;5109692;28;21064;-77
2022/11/04 13:14:02;;;;;;;3.70;1.43;;;14.00;99.90;;;;;;5110368;28;20480;-76
2022/11/04 13:16:31;;;;;;;2.07;0.60;;;14.20;99.90;;;;;;5103570;28;20460;-78
2022/11/04 13:18:59;;;;;;;1.10;0.70;;;14.30;99.90;;;;;;5107852;28;20448;-75
2022/11/04 13:21:32;;;;;;;1.20;0.63;;;14.20;99.90;;;;;;5109514;28;20460;-74
2022/11/04 13:24:03;;;;;;;1.37;0.90;;;14.10;99.90;;;;;;5110743;28;20531;-74
2022/11/04 13:26:31;;;;;;;1.70;1.27;;;14.10;99.90;;;;;;5110487;28;20440;-76
2022/11/04 13:29:03;;;;;;;1.20;0.70;;;14.10;99.90;;;;;;5110663;28;20946;-76
2022/11/04 13:31:39;;;;;;;1.57;0.60;;;13.90;99.90;;;;;;5107283;28;20531;-76
2022/11/04 13:34:13;;;;;;;1.97;0.70;;;13.80;99.90;;;;;;5110634;28;20533;-76
2022/11/04 13:36:46;;;;;;;3.30;0.73;;;13.80;99.90;;;;;;5110837;28;20444;-75
2022/11/04 13:39:19;;;;;;;2.60;0.83;;;13.60;99.90;;;;;;5110326;28;20448;-76
2022/11/04 13:42:23;;;;;;;2.90;0.87;;;13.50;99.90;;;;;;5110445;28;20579;-74